createdAt,value
2018-04-15T00:02:00.849Z,99.90
2018-04-15T00:04:27.186Z,99.90
2018-04-15T00:06:53.558Z,99.90
2018-04-15T00:09:19.881Z,99.90
2018-04-15T00:11:46.295Z,99.90
2018-04-15T00:14:12.673Z,99.90
2018-04-15T00:16:39.049Z,99.90
2018-04-15T00:19:05.440Z,99.90
2018-04-15T00:21:31.776Z,99.90
2018-04-15T00:23:58.093Z,99.90
2018-04-15T00:26:25.165Z,99.90
2018-04-15T00:28:52.238Z,99.90
2018-04-15T00:31:18.578Z,99.90
2018-04-15T00:33:44.969Z,99.90
2018-04-15T00:36:12.094Z,99.90
2018-04-15T00:38:38.484Z,99.90
2018-04-15T00:41:04.822Z,99.90
2018-04-15T00:43:31.230Z,99.90
2018-04-15T00:45:57.585Z,99.90
2018-04-15T00:48:23.966Z,99.90
2018-04-15T00:50:51.145Z,99.90
2018-04-15T00:53:17.486Z,99.90
2018-04-15T00:55:44.753Z,99.90
2018-04-15T00:58:11.890Z,99.90
2018-04-15T01:00:38.225Z,99.90
2018-04-15T01:03:04.602Z,99.90
2018-04-15T01:05:30.978Z,99.90
2018-04-15T01:07:57.350Z,99.90
2018-04-15T01:10:23.766Z,99.90
2018-04-15T01:12:50.141Z,99.90
2018-04-15T01:15:16.497Z,99.90
2018-04-15T01:17:43.605Z,99.90
2018-04-15T01:20:10.014Z,99.90
2018-04-15T01:22:36.371Z,99.90
2018-04-15T01:25:02.790Z,99.90
2018-04-15T01:27:29.873Z,99.90
2018-04-15T01:29:56.990Z,99.90
2018-04-15T01:32:23.350Z,99.90
2018-04-15T01:34:49.757Z,99.90
2018-04-15T01:37:16.166Z,99.90
2018-04-15T01:39:42.531Z,99.90
2018-04-15T01:42:08.886Z,99.90
2018-04-15T01:44:35.300Z,99.90
2018-04-15T01:47:01.641Z,99.90
2018-04-15T01:49:28.726Z,99.90
2018-04-15T01:51:55.121Z,99.90
2018-04-15T01:54:22.265Z,99.90
2018-04-15T01:56:49.392Z,99.90
2018-04-15T01:59:15.763Z,99.90
2018-04-15T02:01:42.129Z,99.90
2018-04-15T02:04:08.497Z,99.90
2018-04-15T02:06:35.569Z,99.90
2018-04-15T02:09:01.973Z,99.90
2018-04-15T02:11:28.329Z,99.90
2018-04-15T02:13:55.442Z,99.90
2018-04-15T02:16:21.887Z,99.90
2018-04-15T02:18:48.274Z,99.90
2018-04-15T02:21:15.607Z,99.90
2018-04-15T02:23:42.730Z,99.90
2018-04-15T02:26:09.176Z,99.90
2018-04-15T02:28:35.641Z,99.90
2018-04-15T02:31:02.033Z,99.90
2018-04-15T02:33:28.426Z,99.90
2018-04-15T02:35:54.800Z,99.90
2018-04-15T02:38:21.118Z,99.90
2018-04-15T02:40:47.466Z,99.90
2018-04-15T02:43:13.802Z,99.90
2018-04-15T02:45:40.126Z,99.90
2018-04-15T02:48:06.461Z,99.90
2018-04-15T02:50:32.870Z,99.90
2018-04-15T02:52:59.913Z,99.90
2018-04-15T02:55:26.277Z,99.90
2018-04-15T02:57:52.620Z,99.90
2018-04-15T03:00:19.740Z,99.90
2018-04-15T03:02:46.066Z,99.90
2018-04-15T03:05:12.443Z,99.90
2018-04-15T03:07:38.789Z,99.90
2018-04-15T03:10:05.121Z,99.90
2018-04-15T03:12:32.230Z,99.90
2018-04-15T03:14:59.291Z,99.90
2018-04-15T03:17:26.413Z,99.90
2018-04-15T03:19:52.723Z,99.90
2018-04-15T03:22:19.145Z,99.90
2018-04-15T03:24:46.209Z,99.90
2018-04-15T03:27:12.614Z,99.90
2018-04-15T03:29:39.704Z,99.90
2018-04-15T03:32:06.070Z,99.90
2018-04-15T03:34:32.401Z,99.90
2018-04-15T03:36:58.837Z,99.90
2018-04-15T03:39:25.187Z,99.90
2018-04-15T03:41:51.585Z,99.90
2018-04-15T03:44:18.673Z,99.90
2018-04-15T03:46:45.065Z,99.90
2018-04-15T03:49:11.409Z,99.90
2018-04-15T03:51:37.793Z,99.90
2018-04-15T03:54:04.438Z,99.90
2018-04-15T03:56:30.805Z,99.90
2018-04-15T03:58:57.182Z,99.90
2018-04-15T04:01:23.526Z,99.90
2018-04-15T04:03:49.870Z,99.90
2018-04-15T04:06:16.221Z,99.90
2018-04-15T04:08:42.619Z,99.90
2018-04-15T04:11:08.981Z,99.90
2018-04-15T04:13:35.365Z,99.90
2018-04-15T04:16:01.733Z,99.90
2018-04-15T04:18:40.505Z,99.90
2018-04-15T04:21:19.227Z,99.90
2018-04-15T04:23:57.957Z,99.90
2018-04-15T04:26:25.124Z,99.90
2018-04-15T04:28:51.515Z,99.90
2018-04-15T04:31:18.090Z,99.90
2018-04-15T04:33:45.247Z,99.90
2018-04-15T04:36:11.739Z,99.90
2018-04-15T04:38:38.204Z,99.90
2018-04-15T04:41:05.383Z,99.90
2018-04-15T04:43:31.832Z,99.90
2018-04-15T04:45:58.373Z,99.90
2018-04-15T04:48:24.868Z,99.90
2018-04-15T04:50:51.241Z,99.90
2018-04-15T04:53:18.414Z,99.90
2018-04-15T04:55:44.856Z,99.90
2018-04-15T04:58:11.285Z,99.90
2018-04-15T05:00:37.719Z,99.90
2018-04-15T05:03:04.123Z,99.90
2018-04-15T05:05:30.564Z,99.90
2018-04-15T05:07:57.108Z,99.90
2018-04-15T05:10:23.547Z,99.90
2018-04-15T05:12:50.715Z,99.90
2018-04-15T05:15:17.122Z,99.90
2018-04-15T05:17:44.244Z,99.90
2018-04-15T05:20:10.665Z,99.90
2018-04-15T05:22:37.098Z,99.90
2018-04-15T05:25:03.590Z,99.90
2018-04-15T05:27:29.959Z,99.90
2018-04-15T05:29:57.934Z,99.90
2018-04-15T05:32:24.391Z,99.90
2018-04-15T05:34:51.574Z,99.90
2018-04-15T05:37:18.774Z,99.90
2018-04-15T05:39:45.221Z,99.90
2018-04-15T05:42:11.621Z,99.90
2018-04-15T05:44:38.784Z,99.90
2018-04-15T05:47:05.205Z,99.90
2018-04-15T05:49:31.605Z,99.90
2018-04-15T05:51:58.163Z,99.90
2018-04-15T05:54:24.578Z,99.90
2018-04-15T05:56:51.826Z,99.90
2018-04-15T05:59:18.223Z,99.90
2018-04-15T06:01:44.616Z,99.90
2018-04-15T06:04:11.086Z,99.90
2018-04-15T06:06:37.589Z,99.90
2018-04-15T06:09:04.770Z,99.90
2018-04-15T06:11:31.162Z,99.90
2018-04-15T06:13:57.511Z,99.90
2018-04-15T06:16:24.634Z,99.90
2018-04-15T06:18:51.047Z,99.90
2018-04-15T06:21:17.497Z,99.90
2018-04-15T06:23:43.949Z,99.90
2018-04-15T06:26:10.415Z,99.90
2018-04-15T06:28:36.814Z,99.90
2018-04-15T06:31:03.341Z,99.90
2018-04-15T06:33:29.909Z,99.90
2018-04-15T06:35:57.086Z,99.90
2018-04-15T06:38:25.498Z,99.90
2018-04-15T06:40:51.881Z,99.90
2018-04-15T06:43:19.749Z,99.90
2018-04-15T06:45:47.654Z,99.90
2018-04-15T06:48:14.197Z,99.90
2018-04-15T06:50:40.583Z,99.90
2018-04-15T06:53:09.038Z,99.90
2018-04-15T06:55:36.544Z,99.90
2018-04-15T06:58:04.561Z,99.90
2018-04-15T07:00:30.948Z,99.90
2018-04-15T07:02:58.131Z,99.90
2018-04-15T07:05:24.516Z,99.90
2018-04-15T07:07:50.885Z,99.90
2018-04-15T07:10:17.254Z,99.90
2018-04-15T07:12:43.703Z,99.90
2018-04-15T07:15:10.135Z,99.90
2018-04-15T07:17:36.622Z,99.90
2018-04-15T07:20:03.325Z,99.90
2018-04-15T07:22:29.835Z,99.90
2018-04-15T07:24:56.269Z,99.90
2018-04-15T07:27:22.729Z,99.90
2018-04-15T07:29:49.069Z,99.90
2018-04-15T07:32:15.461Z,99.90
2018-04-15T07:34:41.883Z,99.90
2018-04-15T07:37:08.335Z,99.90
2018-04-15T07:39:34.781Z,99.90
2018-04-15T07:42:02.798Z,99.90
2018-04-15T07:44:29.929Z,99.90
2018-04-15T07:46:56.322Z,99.90
2018-04-15T07:49:22.690Z,99.90
2018-04-15T07:51:49.129Z,99.90
2018-04-15T07:54:16.342Z,99.90
2018-04-15T07:56:43.439Z,99.90
2018-04-15T07:59:10.006Z,99.90
2018-04-15T08:01:36.418Z,99.90
2018-04-15T08:04:02.932Z,99.90
2018-04-15T08:06:31.421Z,99.90
2018-04-15T08:08:57.898Z,99.90
2018-04-15T08:11:24.320Z,99.90
2018-04-15T08:13:52.305Z,99.90
2018-04-15T08:16:18.786Z,99.90
2018-04-15T08:18:45.206Z,99.90
2018-04-15T08:21:11.759Z,99.90
2018-04-15T08:23:38.215Z,99.90
2018-04-15T08:26:04.731Z,99.90
2018-04-15T08:28:31.145Z,99.90
2018-04-15T08:30:58.365Z,99.90
2018-04-15T08:33:24.794Z,99.90
2018-04-15T08:35:51.214Z,99.90
2018-04-15T08:38:17.879Z,99.90
2018-04-15T08:40:44.343Z,99.90
2018-04-15T08:43:10.767Z,99.90
2018-04-15T08:45:37.988Z,99.90
2018-04-15T08:48:04.914Z,99.90
2018-04-15T08:50:32.079Z,99.90
2018-04-15T08:52:58.555Z,99.90
2018-04-15T08:55:24.965Z,99.90
2018-04-15T08:57:51.398Z,99.90
2018-04-15T09:00:18.629Z,99.90
2018-04-15T09:02:46.946Z,99.90
2018-04-15T09:05:13.343Z,99.90
2018-04-15T09:07:39.716Z,99.90
2018-04-15T09:10:06.146Z,99.90
2018-04-15T09:12:32.505Z,99.90
2018-04-15T09:14:58.917Z,99.90
2018-04-15T09:17:26.057Z,99.90
2018-04-15T09:19:52.466Z,99.90
2018-04-15T09:22:18.857Z,99.90
2018-04-15T09:24:45.309Z,99.90
2018-04-15T09:27:11.740Z,99.90
2018-04-15T09:29:38.187Z,99.90
2018-04-15T09:32:04.820Z,99.90
2018-04-15T09:34:31.238Z,99.90
2018-04-15T09:36:58.454Z,99.90
2018-04-15T09:39:24.846Z,99.90
2018-04-15T09:41:51.564Z,99.90
2018-04-15T09:44:18.195Z,99.90
2018-04-15T09:46:44.661Z,99.90
2018-04-15T09:49:11.064Z,99.90
2018-04-15T09:51:37.686Z,99.90
2018-04-15T09:54:06.391Z,99.90
2018-04-15T09:56:33.506Z,99.90
2018-04-15T09:58:59.874Z,99.90
2018-04-15T10:01:26.350Z,99.90
2018-04-15T10:03:53.664Z,99.90
2018-04-15T10:06:20.259Z,99.90
2018-04-15T10:08:46.934Z,99.90
2018-04-15T10:11:13.435Z,99.90
2018-04-15T10:13:39.854Z,99.90
2018-04-15T10:16:07.025Z,99.90
2018-04-15T10:18:34.385Z,99.90
2018-04-15T10:21:00.786Z,99.90
2018-04-15T10:23:27.698Z,99.90
2018-04-15T10:25:54.066Z,99.90
2018-04-15T10:28:20.482Z,99.90
2018-04-15T10:30:46.894Z,99.90
2018-04-15T10:33:14.027Z,99.90
2018-04-15T10:35:41.228Z,99.90
2018-04-15T10:38:07.659Z,99.90
2018-04-15T10:40:34.048Z,99.90
2018-04-15T10:43:00.485Z,99.90
2018-04-15T10:45:26.893Z,99.90
2018-04-15T10:47:53.295Z,99.90
2018-04-15T10:50:19.702Z,99.90
2018-04-15T10:52:46.115Z,96.50
2018-04-15T10:55:12.513Z,95.40
2018-04-15T10:57:39.609Z,84.70
2018-04-15T11:00:06.005Z,84.80
2018-04-15T11:02:32.850Z,91.40
2018-04-15T11:04:59.221Z,92.00
2018-04-15T11:07:26.326Z,99.50
2018-04-15T11:09:52.710Z,99.50
2018-04-15T11:12:19.089Z,99.90
2018-04-15T11:14:48.587Z,99.90
2018-04-15T11:17:14.972Z,99.90
2018-04-15T11:19:41.373Z,99.90
2018-04-15T11:22:07.742Z,99.90
2018-04-15T11:24:34.194Z,99.90
2018-04-15T11:27:01.302Z,99.90
2018-04-15T11:29:27.821Z,99.90
2018-04-15T11:31:54.381Z,99.90
2018-04-15T11:34:20.785Z,99.90
2018-04-15T11:36:48.039Z,99.90
2018-04-15T11:39:14.357Z,99.90
2018-04-15T11:41:40.738Z,99.90
2018-04-15T11:44:07.134Z,99.90
2018-04-15T11:46:33.557Z,99.90
2018-04-15T11:49:00.671Z,99.90
2018-04-15T11:51:28.414Z,99.90
2018-04-15T11:53:54.914Z,99.90
2018-04-15T11:56:22.818Z,99.90
2018-04-15T11:58:49.257Z,99.90
2018-04-15T12:01:15.668Z,99.90
2018-04-15T12:03:42.080Z,99.90
2018-04-15T12:06:08.513Z,99.90
2018-04-15T12:08:34.934Z,99.90
2018-04-15T12:11:01.342Z,99.90
2018-04-15T12:13:31.444Z,99.90
2018-04-15T12:15:57.925Z,99.90
2018-04-15T12:18:24.349Z,99.90
2018-04-15T12:20:51.659Z,99.90
2018-04-15T12:23:18.815Z,99.90
2018-04-15T12:25:46.009Z,99.90
2018-04-15T12:28:15.085Z,99.90
2018-04-15T12:30:41.502Z,99.90
2018-04-15T12:33:07.898Z,99.90
2018-04-15T12:35:34.406Z,99.90
2018-04-15T12:38:00.819Z,99.90
2018-04-15T12:40:27.213Z,99.90
2018-04-15T12:42:53.606Z,99.90
2018-04-15T12:45:20.006Z,99.90
2018-04-15T12:47:46.376Z,99.90
2018-04-15T12:50:12.771Z,99.90
2018-04-15T12:52:39.177Z,99.90
2018-04-15T12:55:05.584Z,99.90
2018-04-15T12:57:32.750Z,99.90
2018-04-15T12:59:59.150Z,99.90
2018-04-15T13:02:25.610Z,99.90
2018-04-15T13:04:51.937Z,99.90
2018-04-15T13:07:18.333Z,99.90
2018-04-15T13:09:44.760Z,99.90
2018-04-15T13:12:11.891Z,99.90
2018-04-15T13:14:38.304Z,99.90
2018-04-15T13:17:04.714Z,99.90
2018-04-15T13:19:31.857Z,99.90
2018-04-15T13:21:58.488Z,99.90
2018-04-15T13:24:24.857Z,99.70
2018-04-15T13:26:51.294Z,98.90
2018-04-15T13:29:17.660Z,97.60
2018-04-15T13:31:44.037Z,99.90
2018-04-15T13:34:10.499Z,99.00
2018-04-15T13:36:36.938Z,97.90
2018-04-15T13:39:03.399Z,97.80
2018-04-15T13:41:30.548Z,99.90
2018-04-15T13:43:56.969Z,99.90
2018-04-15T13:46:24.223Z,99.70
2018-04-15T13:48:50.633Z,99.60
2018-04-15T13:51:17.141Z,99.10
2018-04-15T13:53:43.569Z,99.90
2018-04-15T13:56:10.053Z,99.90
2018-04-15T13:58:37.210Z,99.60
2018-04-15T14:01:03.614Z,99.40
2018-04-15T14:03:30.026Z,99.30
2018-04-15T14:05:56.477Z,99.60
2018-04-15T14:08:23.663Z,98.50
2018-04-15T14:10:51.922Z,95.60
2018-04-15T14:13:19.138Z,93.70
2018-04-15T14:15:45.541Z,93.70
2018-04-15T14:18:11.998Z,92.30
2018-04-15T14:20:38.569Z,92.30
2018-04-15T14:23:04.997Z,91.10
2018-04-15T14:25:31.401Z,90.90
2018-04-15T14:27:57.791Z,86.10
2018-04-15T14:30:24.170Z,88.10
2018-04-15T14:32:51.296Z,88.70
2018-04-15T14:35:17.878Z,88.40
2018-04-15T14:37:45.046Z,91.20
2018-04-15T14:40:11.521Z,91.20
2018-04-15T14:42:37.977Z,90.90
2018-04-15T14:45:04.414Z,92.50
2018-04-15T14:47:30.882Z,92.20
2018-04-15T14:49:57.349Z,93.40
2018-04-15T14:52:23.770Z,95.60
2018-04-15T14:54:50.232Z,97.70
2018-04-15T14:57:16.658Z,97.20
2018-04-15T14:59:43.106Z,97.70
2018-04-15T15:02:09.524Z,99.10
2018-04-15T15:04:36.041Z,96.90
2018-04-15T15:07:02.444Z,98.10
2018-04-15T15:09:28.882Z,98.90
2018-04-15T15:11:55.283Z,98.40
2018-04-15T15:14:21.711Z,98.20
2018-04-15T15:16:48.144Z,99.70
2018-04-15T15:19:14.532Z,99.90
2018-04-15T15:21:40.993Z,99.90
2018-04-15T15:24:07.383Z,99.90
2018-04-15T15:26:33.837Z,99.90
2018-04-15T15:29:00.302Z,99.90
2018-04-15T15:31:26.769Z,99.90
2018-04-15T15:33:53.211Z,99.90
2018-04-15T15:36:19.638Z,99.90
2018-04-15T15:38:46.027Z,99.90
2018-04-15T15:41:12.469Z,99.90
2018-04-15T15:43:38.854Z,99.90
2018-04-15T15:46:05.412Z,99.90
2018-04-15T15:48:31.785Z,99.90
2018-04-15T15:50:58.277Z,99.90
2018-04-15T15:53:24.776Z,99.90
2018-04-15T15:55:52.126Z,99.90
2018-04-15T15:58:18.530Z,99.90
2018-04-15T16:00:44.985Z,99.90
2018-04-15T16:03:11.373Z,99.90
2018-04-15T16:05:37.774Z,99.90
2018-04-15T16:08:05.461Z,99.90
2018-04-15T16:10:32.692Z,99.90
2018-04-15T16:12:59.105Z,99.90
2018-04-15T16:15:25.483Z,99.90
2018-04-15T16:17:51.947Z,99.90
2018-04-15T16:20:18.331Z,99.90
2018-04-15T16:22:44.755Z,99.90
2018-04-15T16:25:11.131Z,99.90
2018-04-15T16:27:38.261Z,99.90
2018-04-15T16:30:04.962Z,99.90
2018-04-15T16:32:32.138Z,99.90
2018-04-15T16:34:59.250Z,99.90
2018-04-15T16:37:25.686Z,99.90
2018-04-15T16:39:54.101Z,99.90
2018-04-15T16:42:21.270Z,99.90
2018-04-15T16:44:47.634Z,99.90
2018-04-15T16:47:14.036Z,99.90
2018-04-15T16:49:40.545Z,99.90
2018-04-15T16:52:07.691Z,99.90
2018-04-15T16:54:34.819Z,99.90
2018-04-15T16:57:01.277Z,99.90
2018-04-15T16:59:27.697Z,99.90
2018-04-15T17:01:54.169Z,99.90
2018-04-15T17:04:20.669Z,99.90
2018-04-15T17:06:47.038Z,99.90
2018-04-15T17:09:13.464Z,99.90
2018-04-15T17:11:39.899Z,99.90
2018-04-15T17:14:07.050Z,99.90
2018-04-15T17:16:33.558Z,99.90
2018-04-15T17:18:59.977Z,99.90
2018-04-15T17:21:27.139Z,99.90
2018-04-15T17:23:53.694Z,99.90
2018-04-15T17:26:20.225Z,99.90
2018-04-15T17:28:46.697Z,99.90
2018-04-15T17:31:13.084Z,99.90
2018-04-15T17:33:39.521Z,99.90
2018-04-15T17:36:06.145Z,99.90
2018-04-15T17:38:32.626Z,99.90
2018-04-15T17:40:59.096Z,99.90
2018-04-15T17:43:25.588Z,99.90
2018-04-15T17:45:55.947Z,99.90
2018-04-15T17:48:22.410Z,99.90
2018-04-15T17:50:48.756Z,99.90
2018-04-15T17:53:15.154Z,99.90
2018-04-15T17:55:42.292Z,99.90
2018-04-15T17:58:08.726Z,99.90
2018-04-15T18:00:35.137Z,99.90
2018-04-15T18:03:01.736Z,99.90
2018-04-15T18:05:28.157Z,99.90
2018-04-15T18:07:54.532Z,99.90
2018-04-15T18:10:21.746Z,99.90
2018-04-15T18:12:48.140Z,99.90
2018-04-15T18:15:14.574Z,99.90
2018-04-15T18:17:40.998Z,99.90
2018-04-15T18:20:07.465Z,99.90
2018-04-15T18:22:33.928Z,99.90
2018-04-15T18:25:00.396Z,99.90
2018-04-15T18:27:26.849Z,99.90
2018-04-15T18:29:54.066Z,99.90
2018-04-15T18:32:20.522Z,99.90
2018-04-15T18:34:46.952Z,99.90
2018-04-15T18:37:13.427Z,99.90
2018-04-15T18:39:39.874Z,99.90
2018-04-15T18:42:06.300Z,99.90
2018-04-15T18:44:32.757Z,99.90
2018-04-15T18:46:59.175Z,99.90
2018-04-15T18:49:26.346Z,99.90
2018-04-15T18:51:53.507Z,99.90
2018-04-15T18:54:21.586Z,99.90
2018-04-15T18:56:48.006Z,99.90
2018-04-15T18:59:16.589Z,99.90
2018-04-15T19:01:43.704Z,99.90
2018-04-15T19:04:10.153Z,99.90
2018-04-15T19:06:36.542Z,99.90
2018-04-15T19:09:02.967Z,99.90
2018-04-15T19:11:29.406Z,99.90
2018-04-15T19:13:56.530Z,99.90
2018-04-15T19:16:22.926Z,99.90
2018-04-15T19:18:49.279Z,99.90
2018-04-15T19:21:15.650Z,99.90
2018-04-15T19:23:42.023Z,99.90
2018-04-15T19:26:09.167Z,99.90
2018-04-15T19:28:35.559Z,99.90
2018-04-15T19:31:01.968Z,99.90
2018-04-15T19:33:28.313Z,99.90
2018-04-15T19:35:54.742Z,99.90
2018-04-15T19:38:21.222Z,99.90
2018-04-15T19:40:47.624Z,99.90
2018-04-15T19:43:14.077Z,99.90
2018-04-15T19:45:40.521Z,99.90
2018-04-15T19:48:06.923Z,99.90
2018-04-15T19:50:34.046Z,99.90
2018-04-15T19:53:00.438Z,99.90
2018-04-15T19:55:27.078Z,99.90
2018-04-15T19:57:53.518Z,99.90
2018-04-15T20:00:21.156Z,99.90
2018-04-15T20:02:47.570Z,99.90
2018-04-15T20:05:13.925Z,99.90
2018-04-15T20:07:40.302Z,99.90
2018-04-15T20:10:07.451Z,99.90
2018-04-15T20:12:33.853Z,99.90
2018-04-15T20:15:00.965Z,99.90
2018-04-15T20:17:28.122Z,99.90
2018-04-15T20:19:54.477Z,99.90
2018-04-15T20:22:21.610Z,99.90
2018-04-15T20:24:48.011Z,99.90
2018-04-15T20:27:14.428Z,99.90
2018-04-15T20:29:40.821Z,99.90
2018-04-15T20:32:07.233Z,99.90
2018-04-15T20:34:34.382Z,99.90
2018-04-15T20:37:01.510Z,99.90
2018-04-15T20:39:27.878Z,99.90
2018-04-15T20:41:54.291Z,99.90
2018-04-15T20:44:20.645Z,99.90
2018-04-15T20:46:47.015Z,99.90
2018-04-15T20:49:13.385Z,99.90
2018-04-15T20:51:40.465Z,99.90
2018-04-15T20:54:06.862Z,99.90
2018-04-15T20:56:33.234Z,99.90
2018-04-15T20:59:00.325Z,99.90
2018-04-15T21:01:26.683Z,99.90
2018-04-15T21:03:53.081Z,99.90
2018-04-15T21:06:20.198Z,99.90
2018-04-15T21:08:46.612Z,99.90
2018-04-15T21:11:12.956Z,99.90
2018-04-15T21:13:39.345Z,99.90
2018-04-15T21:16:05.741Z,99.90
2018-04-15T21:18:32.110Z,99.90
2018-04-15T21:20:58.466Z,99.90
2018-04-15T21:23:24.901Z,99.90
2018-04-15T21:25:52.023Z,99.90
2018-04-15T21:28:18.426Z,99.90
2018-04-15T21:30:46.312Z,99.90
2018-04-15T21:33:12.670Z,99.90
2018-04-15T21:35:39.785Z,99.90
2018-04-15T21:38:06.186Z,99.90
2018-04-15T21:40:32.594Z,99.90
2018-04-15T21:42:58.949Z,99.90
2018-04-15T21:45:26.071Z,99.90
2018-04-15T21:47:52.523Z,99.90
2018-04-15T21:50:18.914Z,99.90
2018-04-15T21:52:46.025Z,99.90
2018-04-15T21:55:12.412Z,99.90
2018-04-15T21:57:39.510Z,99.90
2018-04-15T22:00:06.105Z,99.90
2018-04-15T22:02:32.514Z,99.90
2018-04-15T22:04:58.891Z,99.90
2018-04-15T22:07:26.002Z,99.90
2018-04-15T22:09:52.369Z,99.90
2018-04-15T22:12:19.510Z,99.90
2018-04-15T22:14:45.933Z,99.90
2018-04-15T22:17:12.325Z,99.90
2018-04-15T22:19:38.694Z,99.90
2018-04-15T22:22:05.151Z,99.90
2018-04-15T22:24:32.253Z,99.90
2018-04-15T22:26:58.642Z,99.90
2018-04-15T22:29:24.993Z,99.90
2018-04-15T22:31:51.361Z,99.90
2018-04-15T22:34:17.769Z,99.90
2018-04-15T22:36:44.193Z,99.90
2018-04-15T22:39:10.593Z,99.90
2018-04-15T22:41:36.973Z,99.90
2018-04-15T22:44:03.927Z,99.90
2018-04-15T22:46:30.322Z,99.90
2018-04-15T22:48:56.724Z,99.90
2018-04-15T22:51:23.887Z,99.90
2018-04-15T22:53:50.241Z,99.90
2018-04-15T22:56:16.700Z,99.90
2018-04-15T22:58:46.089Z,99.90
2018-04-15T23:01:12.557Z,99.90
2018-04-15T23:03:39.690Z,99.90
2018-04-15T23:06:06.090Z,99.90
2018-04-15T23:08:33.191Z,99.90
2018-04-15T23:10:59.567Z,99.90
2018-04-15T23:13:25.935Z,99.90
2018-04-15T23:15:53.065Z,99.90
2018-04-15T23:18:19.401Z,99.90
2018-04-15T23:20:45.809Z,99.90
2018-04-15T23:23:12.203Z,99.90
2018-04-15T23:25:38.590Z,99.90
2018-04-15T23:28:04.970Z,99.90
2018-04-15T23:30:32.165Z,99.90
2018-04-15T23:32:58.498Z,99.90
2018-04-15T23:35:31.790Z,99.90
2018-04-15T23:37:58.144Z,99.90
2018-04-15T23:40:24.491Z,99.90
2018-04-15T23:42:50.817Z,99.90
2018-04-15T23:45:17.168Z,99.90
2018-04-15T23:47:43.545Z,99.90
2018-04-15T23:50:09.918Z,99.90
2018-04-15T23:52:36.267Z,99.90
2018-04-15T23:55:02.654Z,99.90
2018-04-15T23:57:29.770Z,99.90
2018-04-15T23:59:56.170Z,99.90
